sensor_id;sensor_type;location;lat;lon;timestamp;temperature;humidity
7163;DHT22;3623;47.098;15.446;2022-12-04T00:01:18;2.40;99.90
7163;DHT22;3623;47.098;15.446;2022-12-04T00:03:46;2.40;99.90
7163;DHT22;3623;47.098;15.446;2022-12-04T00:06:14;2.60;99.90
7163;DHT22;3623;47.098;15.446;2022-12-04T00:08:42;2.60;99.90
7163;DHT22;3623;47.098;15.446;2022-12-04T00:11:10;2.60;99.90
7163;DHT22;3623;47.098;15.446;2022-12-04T00:13:38;2.40;99.90
7163;DHT22;3623;47.098;15.446;2022-12-04T00:16:07;2.40;99.90
7163;DHT22;3623;47.098;15.446;2022-12-04T00:18:36;2.40;99.90
7163;DHT22;3623;47.098;15.446;2022-12-04T00:21:03;2.40;99.90
7163;DHT22;3623;47.098;15.446;2022-12-04T00:23:31;2.40;99.90
7163;DHT22;3623;47.098;15.446;2022-12-04T00:25:59;2.40;99.90
7163;DHT22;3623;47.098;15.446;2022-12-04T00:28:26;2.40;99.90
7163;DHT22;3623;47.098;15.446;2022-12-04T00:30:54;2.60;99.90
7163;DHT22;3623;47.098;15.446;2022-12-04T00:33:22;2.40;99.90
7163;DHT22;3623;47.098;15.446;2022-12-04T00:35:57;2.40;99.90
7163;DHT22;3623;47.098;15.446;2022-12-04T00:38:24;2.40;99.90
7163;DHT22;3623;47.098;15.446;2022-12-04T00:40:52;2.40;99.90
7163;DHT22;3623;47.098;15.446;2022-12-04T00:43:20;2.50;99.90
7163;DHT22;3623;47.098;15.446;2022-12-04T00:45:47;2.40;99.90
7163;DHT22;3623;47.098;15.446;2022-12-04T00:48:14;2.50;99.90
7163;DHT22;3623;47.098;15.446;2022-12-04T00:50:41;2.50;99.90
7163;DHT22;3623;47.098;15.446;2022-12-04T00:53:09;2.40;99.90
7163;DHT22;3623;47.098;15.446;2022-12-04T00:55:37;2.40;99.90
7163;DHT22;3623;47.098;15.446;2022-12-04T00:58:04;2.50;99.90
7163;DHT22;3623;47.098;15.446;2022-12-04T01:00:32;2.40;99.90
7163;DHT22;3623;47.098;15.446;2022-12-04T01:02:59;2.50;99.90
7163;DHT22;3623;47.098;15.446;2022-12-04T01:05:27;2.40;99.90
7163;DHT22;3623;47.098;15.446;2022-12-04T01:07:54;2.60;99.90
7163;DHT22;3623;47.098;15.446;2022-12-04T01:10:22;2.70;99.90
7163;DHT22;3623;47.098;15.446;2022-12-04T01:12:50;2.70;99.90
7163;DHT22;3623;47.098;15.446;2022-12-04T01:15:18;2.60;99.90
7163;DHT22;3623;47.098;15.446;2022-12-04T01:17:45;2.50;99.90
7163;DHT22;3623;47.098;15.446;2022-12-04T01:20:13;2.40;99.90
7163;DHT22;3623;47.098;15.446;2022-12-04T01:22:40;2.40;99.90
7163;DHT22;3623;47.098;15.446;2022-12-04T01:25:08;2.40;99.90
7163;DHT22;3623;47.098;15.446;2022-12-04T01:27:36;2.30;99.90
7163;DHT22;3623;47.098;15.446;2022-12-04T01:30:05;2.40;99.90
7163;DHT22;3623;47.098;15.446;2022-12-04T01:32:32;2.30;99.90
7163;DHT22;3623;47.098;15.446;2022-12-04T01:34:59;2.50;99.90
7163;DHT22;3623;47.098;15.446;2022-12-04T01:37:29;2.30;99.90
7163;DHT22;3623;47.098;15.446;2022-12-04T01:39:56;2.40;99.90
7163;DHT22;3623;47.098;15.446;2022-12-04T01:42:24;2.60;99.90
7163;DHT22;3623;47.098;15.446;2022-12-04T01:48:01;2.40;99.90
7163;DHT22;3623;47.098;15.446;2022-12-04T01:50:29;2.50;99.90
7163;DHT22;3623;47.098;15.446;2022-12-04T01:52:57;2.40;99.90
7163;DHT22;3623;47.098;15.446;2022-12-04T01:55:25;2.40;99.90
7163;DHT22;3623;47.098;15.446;2022-12-04T01:57:52;2.70;99.90
7163;DHT22;3623;47.098;15.446;2022-12-04T02:00:19;2.40;99.90
7163;DHT22;3623;47.098;15.446;2022-12-04T02:02:48;2.50;99.90
7163;DHT22;3623;47.098;15.446;2022-12-04T02:05:19;2.40;99.90
7163;DHT22;3623;47.098;15.446;2022-12-04T02:07:50;2.40;99.90
7163;DHT22;3623;47.098;15.446;2022-12-04T02:10:19;2.60;99.90
7163;DHT22;3623;47.098;15.446;2022-12-04T02:12:55;2.50;99.90
7163;DHT22;3623;47.098;15.446;2022-12-04T02:15:31;2.50;99.90
7163;DHT22;3623;47.098;15.446;2022-12-04T02:18:05;2.40;99.90
7163;DHT22;3623;47.098;15.446;2022-12-04T02:20:41;2.50;99.90
7163;DHT22;3623;47.098;15.446;2022-12-04T02:23:20;2.70;99.90
7163;DHT22;3623;47.098;15.446;2022-12-04T02:25:56;2.60;99.90
7163;DHT22;3623;47.098;15.446;2022-12-04T02:28:30;2.70;99.90
7163;DHT22;3623;47.098;15.446;2022-12-04T02:31:00;2.40;99.90
7163;DHT22;3623;47.098;15.446;2022-12-04T02:33:30;2.70;99.90
7163;DHT22;3623;47.098;15.446;2022-12-04T02:36:03;2.50;99.90
7163;DHT22;3623;47.098;15.446;2022-12-04T02:38:34;2.50;99.90
7163;DHT22;3623;47.098;15.446;2022-12-04T02:41:07;2.40;99.90
7163;DHT22;3623;47.098;15.446;2022-12-04T02:43:41;2.50;99.90
7163;DHT22;3623;47.098;15.446;2022-12-04T02:46:13;2.70;99.90
7163;DHT22;3623;47.098;15.446;2022-12-04T02:48:44;2.40;99.90
7163;DHT22;3623;47.098;15.446;2022-12-04T02:51:14;2.70;99.90
7163;DHT22;3623;47.098;15.446;2022-12-04T02:53:46;2.70;99.90
7163;DHT22;3623;47.098;15.446;2022-12-04T02:56:20;2.40;99.90
7163;DHT22;3623;47.098;15.446;2022-12-04T02:58:52;2.40;99.90
7163;DHT22;3623;47.098;15.446;2022-12-04T03:01:27;2.40;99.90
7163;DHT22;3623;47.098;15.446;2022-12-04T03:03:58;2.70;99.90
7163;DHT22;3623;47.098;15.446;2022-12-04T03:06:28;2.40;99.90
7163;DHT22;3623;47.098;15.446;2022-12-04T03:09:00;2.60;99.90
7163;DHT22;3623;47.098;15.446;2022-12-04T03:11:30;2.60;99.90
7163;DHT22;3623;47.098;15.446;2022-12-04T03:14:06;2.60;99.90
7163;DHT22;3623;47.098;15.446;2022-12-04T03:16:38;2.50;99.90
7163;DHT22;3623;47.098;15.446;2022-12-04T03:19:09;2.40;99.90
7163;DHT22;3623;47.098;15.446;2022-12-04T03:21:41;2.60;99.90
7163;DHT22;3623;47.098;15.446;2022-12-04T03:24:14;2.50;99.90
7163;DHT22;3623;47.098;15.446;2022-12-04T03:26:46;2.50;99.90
7163;DHT22;3623;47.098;15.446;2022-12-04T03:29:19;2.50;99.90
7163;DHT22;3623;47.098;15.446;2022-12-04T03:31:49;2.50;99.90
7163;DHT22;3623;47.098;15.446;2022-12-04T03:34:24;2.50;99.90
7163;DHT22;3623;47.098;15.446;2022-12-04T03:36:57;2.50;99.90
7163;DHT22;3623;47.098;15.446;2022-12-04T03:39:31;2.50;99.90
7163;DHT22;3623;47.098;15.446;2022-12-04T03:42:03;2.50;99.90
7163;DHT22;3623;47.098;15.446;2022-12-04T03:44:38;2.40;99.90
7163;DHT22;3623;47.098;15.446;2022-12-04T03:47:09;2.50;99.90
7163;DHT22;3623;47.098;15.446;2022-12-04T03:49:41;2.40;99.90
7163;DHT22;3623;47.098;15.446;2022-12-04T03:52:13;2.50;99.90
7163;DHT22;3623;47.098;15.446;2022-12-04T03:54:45;2.70;99.90
7163;DHT22;3623;47.098;15.446;2022-12-04T03:57:17;2.60;99.90
7163;DHT22;3623;47.098;15.446;2022-12-04T03:59:53;2.50;99.90
7163;DHT22;3623;47.098;15.446;2022-12-04T04:02:23;2.50;99.90
7163;DHT22;3623;47.098;15.446;2022-12-04T04:04:54;2.80;99.90
7163;DHT22;3623;47.098;15.446;2022-12-04T04:07:27;2.80;99.90
7163;DHT22;3623;47.098;15.446;2022-12-04T04:09:58;2.50;99.90
7163;DHT22;3623;47.098;15.446;2022-12-04T04:12:31;2.50;99.90
7163;DHT22;3623;47.098;15.446;2022-12-04T04:15:06;2.80;99.90
7163;DHT22;3623;47.098;15.446;2022-12-04T04:17:52;2.60;99.90
7163;DHT22;3623;47.098;15.446;2022-12-04T04:20:37;2.60;99.90
7163;DHT22;3623;47.098;15.446;2022-12-04T04:23:24;2.60;99.90
7163;DHT22;3623;47.098;15.446;2022-12-04T04:26:12;2.80;99.90
7163;DHT22;3623;47.098;15.446;2022-12-04T04:28:41;2.60;99.90
7163;DHT22;3623;47.098;15.446;2022-12-04T04:31:16;2.60;99.90
7163;DHT22;3623;47.098;15.446;2022-12-04T04:33:55;2.90;99.90
7163;DHT22;3623;47.098;15.446;2022-12-04T04:36:32;2.60;99.90
7163;DHT22;3623;47.098;15.446;2022-12-04T04:39:06;2.60;99.90
7163;DHT22;3623;47.098;15.446;2022-12-04T04:41:40;2.70;99.90
7163;DHT22;3623;47.098;15.446;2022-12-04T04:44:14;2.60;99.90
7163;DHT22;3623;47.098;15.446;2022-12-04T04:46:48;2.60;99.90
7163;DHT22;3623;47.098;15.446;2022-12-04T04:49:18;2.60;99.90
7163;DHT22;3623;47.098;15.446;2022-12-04T04:51:47;2.50;99.90
7163;DHT22;3623;47.098;15.446;2022-12-04T04:54:16;2.60;99.90
7163;DHT22;3623;47.098;15.446;2022-12-04T04:56:45;2.60;99.90
7163;DHT22;3623;47.098;15.446;2022-12-04T04:59:13;2.60;99.90
7163;DHT22;3623;47.098;15.446;2022-12-04T05:01:41;2.60;99.90
7163;DHT22;3623;47.098;15.446;2022-12-04T05:04:10;2.70;99.90
7163;DHT22;3623;47.098;15.446;2022-12-04T05:06:37;2.60;99.90
7163;DHT22;3623;47.098;15.446;2022-12-04T05:09:04;2.60;99.90
7163;DHT22;3623;47.098;15.446;2022-12-04T05:11:31;2.60;99.90
7163;DHT22;3623;47.098;15.446;2022-12-04T05:13:59;2.60;99.90
7163;DHT22;3623;47.098;15.446;2022-12-04T05:16:26;2.60;99.90
7163;DHT22;3623;47.098;15.446;2022-12-04T05:18:53;2.60;99.90
7163;DHT22;3623;47.098;15.446;2022-12-04T05:21:39;2.60;99.90
7163;DHT22;3623;47.098;15.446;2022-12-04T05:24:07;2.50;99.90
7163;DHT22;3623;47.098;15.446;2022-12-04T05:26:34;2.60;99.90
7163;DHT22;3623;47.098;15.446;2022-12-04T05:29:01;2.50;99.90
7163;DHT22;3623;47.098;15.446;2022-12-04T05:31:28;2.60;99.90
7163;DHT22;3623;47.098;15.446;2022-12-04T05:33:55;2.70;99.90
7163;DHT22;3623;47.098;15.446;2022-12-04T05:36:22;2.60;99.90
7163;DHT22;3623;47.098;15.446;2022-12-04T05:38:51;2.60;99.90
7163;DHT22;3623;47.098;15.446;2022-12-04T05:41:18;2.80;99.90
7163;DHT22;3623;47.098;15.446;2022-12-04T05:43:45;2.70;99.90
7163;DHT22;3623;47.098;15.446;2022-12-04T05:46:12;2.90;99.90
7163;DHT22;3623;47.098;15.446;2022-12-04T05:48:39;2.60;99.90
7163;DHT22;3623;47.098;15.446;2022-12-04T05:51:07;2.60;99.90
7163;DHT22;3623;47.098;15.446;2022-12-04T05:53:34;2.60;99.90
7163;DHT22;3623;47.098;15.446;2022-12-04T05:56:04;2.70;99.90
7163;DHT22;3623;47.098;15.446;2022-12-04T05:58:33;2.60;99.90
7163;DHT22;3623;47.098;15.446;2022-12-04T06:01:07;2.60;99.90
7163;DHT22;3623;47.098;15.446;2022-12-04T06:03:34;2.60;99.90
7163;DHT22;3623;47.098;15.446;2022-12-04T06:06:01;2.70;99.90
7163;DHT22;3623;47.098;15.446;2022-12-04T06:08:29;2.70;99.90
7163;DHT22;3623;47.098;15.446;2022-12-04T06:10:56;2.70;99.90
7163;DHT22;3623;47.098;15.446;2022-12-04T06:13:24;2.90;99.90
7163;DHT22;3623;47.098;15.446;2022-12-04T06:15:52;2.60;99.90
7163;DHT22;3623;47.098;15.446;2022-12-04T06:18:19;2.80;99.90
7163;DHT22;3623;47.098;15.446;2022-12-04T06:20:47;2.70;99.90
7163;DHT22;3623;47.098;15.446;2022-12-04T06:23:14;2.90;99.90
7163;DHT22;3623;47.098;15.446;2022-12-04T06:25:41;2.70;99.90
7163;DHT22;3623;47.098;15.446;2022-12-04T06:28:08;2.70;99.90
7163;DHT22;3623;47.098;15.446;2022-12-04T06:30:36;2.90;99.90
7163;DHT22;3623;47.098;15.446;2022-12-04T06:33:03;2.90;99.90
7163;DHT22;3623;47.098;15.446;2022-12-04T06:35:30;2.70;99.90
7163;DHT22;3623;47.098;15.446;2022-12-04T06:37:58;2.90;99.90
7163;DHT22;3623;47.098;15.446;2022-12-04T06:40:24;2.90;99.90
7163;DHT22;3623;47.098;15.446;2022-12-04T06:42:52;2.70;99.90
7163;DHT22;3623;47.098;15.446;2022-12-04T06:45:19;2.80;99.90
7163;DHT22;3623;47.098;15.446;2022-12-04T06:47:48;2.90;99.90
7163;DHT22;3623;47.098;15.446;2022-12-04T06:50:15;2.90;99.90
7163;DHT22;3623;47.098;15.446;2022-12-04T06:52:42;2.90;99.90
7163;DHT22;3623;47.098;15.446;2022-12-04T06:55:09;2.70;99.90
7163;DHT22;3623;47.098;15.446;2022-12-04T06:57:36;2.80;99.90
7163;DHT22;3623;47.098;15.446;2022-12-04T07:00:04;2.70;99.90
7163;DHT22;3623;47.098;15.446;2022-12-04T07:02:32;2.70;99.90
7163;DHT22;3623;47.098;15.446;2022-12-04T07:05:00;2.80;99.90
7163;DHT22;3623;47.098;15.446;2022-12-04T07:07:29;2.80;99.90
7163;DHT22;3623;47.098;15.446;2022-12-04T07:09:56;2.80;99.90
7163;DHT22;3623;47.098;15.446;2022-12-04T07:12:23;3.10;99.90
7163;DHT22;3623;47.098;15.446;2022-12-04T07:14:50;3.00;99.90
7163;DHT22;3623;47.098;15.446;2022-12-04T07:17:17;2.80;99.90
7163;DHT22;3623;47.098;15.446;2022-12-04T07:19:45;2.90;99.90
7163;DHT22;3623;47.098;15.446;2022-12-04T07:22:13;2.80;99.90
7163;DHT22;3623;47.098;15.446;2022-12-04T07:24:40;2.80;99.90
7163;DHT22;3623;47.098;15.446;2022-12-04T07:27:09;2.80;99.90
7163;DHT22;3623;47.098;15.446;2022-12-04T07:29:36;2.90;99.90
7163;DHT22;3623;47.098;15.446;2022-12-04T07:32:03;2.80;99.90
7163;DHT22;3623;47.098;15.446;2022-12-04T07:34:30;2.80;99.90
7163;DHT22;3623;47.098;15.446;2022-12-04T07:36:57;2.70;99.90
7163;DHT22;3623;47.098;15.446;2022-12-04T07:39:25;2.80;99.90
7163;DHT22;3623;47.098;15.446;2022-12-04T07:41:53;3.00;99.90
7163;DHT22;3623;47.098;15.446;2022-12-04T07:44:20;2.90;99.90
7163;DHT22;3623;47.098;15.446;2022-12-04T07:46:47;2.90;99.90
7163;DHT22;3623;47.098;15.446;2022-12-04T07:49:14;3.10;99.90
7163;DHT22;3623;47.098;15.446;2022-12-04T07:51:41;3.00;99.90
7163;DHT22;3623;47.098;15.446;2022-12-04T07:54:08;2.90;99.90
7163;DHT22;3623;47.098;15.446;2022-12-04T07:56:36;3.00;99.90
7163;DHT22;3623;47.098;15.446;2022-12-04T07:59:03;2.90;99.90
7163;DHT22;3623;47.098;15.446;2022-12-04T08:01:31;3.00;99.90
7163;DHT22;3623;47.098;15.446;2022-12-04T08:03:59;3.00;99.90
7163;DHT22;3623;47.098;15.446;2022-12-04T08:06:28;3.20;99.90
7163;DHT22;3623;47.098;15.446;2022-12-04T08:08:56;3.10;99.90
7163;DHT22;3623;47.098;15.446;2022-12-04T08:11:25;3.00;99.90
7163;DHT22;3623;47.098;15.446;2022-12-04T08:13:55;3.00;99.90
7163;DHT22;3623;47.098;15.446;2022-12-04T08:16:22;3.00;99.90
7163;DHT22;3623;47.098;15.446;2022-12-04T08:18:49;3.20;99.90
7163;DHT22;3623;47.098;15.446;2022-12-04T08:21:19;3.00;99.90
7163;DHT22;3623;47.098;15.446;2022-12-04T08:23:47;3.00;99.90
7163;DHT22;3623;47.098;15.446;2022-12-04T08:26:16;3.00;99.90
7163;DHT22;3623;47.098;15.446;2022-12-04T08:28:43;3.30;99.90
7163;DHT22;3623;47.098;15.446;2022-12-04T08:31:13;3.10;99.90
7163;DHT22;3623;47.098;15.446;2022-12-04T08:33:42;3.30;99.90
7163;DHT22;3623;47.098;15.446;2022-12-04T08:36:11;3.20;99.90
7163;DHT22;3623;47.098;15.446;2022-12-04T08:38:38;3.10;99.90
7163;DHT22;3623;47.098;15.446;2022-12-04T08:41:07;3.20;99.90
7163;DHT22;3623;47.098;15.446;2022-12-04T08:43:35;3.10;99.90
7163;DHT22;3623;47.098;15.446;2022-12-04T08:46:05;3.10;99.90
7163;DHT22;3623;47.098;15.446;2022-12-04T08:48:34;3.20;99.90
7163;DHT22;3623;47.098;15.446;2022-12-04T08:51:02;3.20;99.90
7163;DHT22;3623;47.098;15.446;2022-12-04T08:53:30;3.30;99.90
7163;DHT22;3623;47.098;15.446;2022-12-04T08:55:59;3.40;99.90
7163;DHT22;3623;47.098;15.446;2022-12-04T08:58:27;3.40;99.90
7163;DHT22;3623;47.098;15.446;2022-12-04T09:00:54;3.40;99.90
7163;DHT22;3623;47.098;15.446;2022-12-04T09:03:21;3.40;99.90
7163;DHT22;3623;47.098;15.446;2022-12-04T09:05:50;3.50;99.90
7163;DHT22;3623;47.098;15.446;2022-12-04T09:08:17;3.50;99.90
7163;DHT22;3623;47.098;15.446;2022-12-04T09:10:44;3.70;99.90
7163;DHT22;3623;47.098;15.446;2022-12-04T09:13:11;3.60;99.90
7163;DHT22;3623;47.098;15.446;2022-12-04T09:15:39;3.50;99.90
7163;DHT22;3623;47.098;15.446;2022-12-04T09:18:06;3.40;99.90
7163;DHT22;3623;47.098;15.446;2022-12-04T09:20:34;3.40;99.90
7163;DHT22;3623;47.098;15.446;2022-12-04T09:23:03;3.40;99.90
7163;DHT22;3623;47.098;15.446;2022-12-04T09:25:34;3.50;99.90
7163;DHT22;3623;47.098;15.446;2022-12-04T09:28:02;3.40;99.90
7163;DHT22;3623;47.098;15.446;2022-12-04T09:30:29;3.40;99.90
7163;DHT22;3623;47.098;15.446;2022-12-04T09:32:56;3.50;99.90
7163;DHT22;3623;47.098;15.446;2022-12-04T09:35:23;3.50;99.90
7163;DHT22;3623;47.098;15.446;2022-12-04T09:37:50;3.50;99.90
7163;DHT22;3623;47.098;15.446;2022-12-04T09:40:25;3.50;99.90
7163;DHT22;3623;47.098;15.446;2022-12-04T09:42:58;3.50;99.90
7163;DHT22;3623;47.098;15.446;2022-12-04T09:45:28;3.50;99.90
7163;DHT22;3623;47.098;15.446;2022-12-04T09:48:00;3.70;99.90
7163;DHT22;3623;47.098;15.446;2022-12-04T09:50:33;3.60;99.90
7163;DHT22;3623;47.098;15.446;2022-12-04T09:53:05;3.80;99.90
7163;DHT22;3623;47.098;15.446;2022-12-04T09:55:39;3.60;99.90
7163;DHT22;3623;47.098;15.446;2022-12-04T09:58:12;3.60;99.90
7163;DHT22;3623;47.098;15.446;2022-12-04T10:00:42;3.60;99.90
7163;DHT22;3623;47.098;15.446;2022-12-04T10:03:13;4.00;99.90
7163;DHT22;3623;47.098;15.446;2022-12-04T10:05:51;3.80;99.90
7163;DHT22;3623;47.098;15.446;2022-12-04T10:08:22;3.70;99.90
7163;DHT22;3623;47.098;15.446;2022-12-04T10:11:08;4.10;99.90
7163;DHT22;3623;47.098;15.446;2022-12-04T10:14:04;3.90;99.90
7163;DHT22;3623;47.098;15.446;2022-12-04T10:16:42;3.80;99.90
7163;DHT22;3623;47.098;15.446;2022-12-04T10:19:18;4.00;99.90
7163;DHT22;3623;47.098;15.446;2022-12-04T10:21:55;3.80;99.90
7163;DHT22;3623;47.098;15.446;2022-12-04T10:24:33;3.80;99.90
7163;DHT22;3623;47.098;15.446;2022-12-04T10:27:10;3.80;99.90
7163;DHT22;3623;47.098;15.446;2022-12-04T10:29:40;4.00;99.90
7163;DHT22;3623;47.098;15.446;2022-12-04T10:32:16;3.90;99.90
7163;DHT22;3623;47.098;15.446;2022-12-04T10:34:45;3.80;99.90
7163;DHT22;3623;47.098;15.446;2022-12-04T10:37:14;3.80;99.90
7163;DHT22;3623;47.098;15.446;2022-12-04T10:39:46;3.80;99.90
7163;DHT22;3623;47.098;15.446;2022-12-04T10:42:23;3.70;99.90
7163;DHT22;3623;47.098;15.446;2022-12-04T10:44:52;3.70;99.90
7163;DHT22;3623;47.098;15.446;2022-12-04T10:47:19;3.80;99.90
7163;DHT22;3623;47.098;15.446;2022-12-04T10:49:54;4.00;99.90
7163;DHT22;3623;47.098;15.446;2022-12-04T10:52:23;3.90;99.90
7163;DHT22;3623;47.098;15.446;2022-12-04T10:54:52;4.00;99.90
7163;DHT22;3623;47.098;15.446;2022-12-04T10:57:34;4.00;99.90
7163;DHT22;3623;47.098;15.446;2022-12-04T11:00:04;4.00;99.90
7163;DHT22;3623;47.098;15.446;2022-12-04T11:02:49;4.00;99.90
7163;DHT22;3623;47.098;15.446;2022-12-04T11:05:24;4.00;99.90
7163;DHT22;3623;47.098;15.446;2022-12-04T11:07:53;4.10;99.90
7163;DHT22;3623;47.098;15.446;2022-12-04T11:10:25;4.10;99.90
7163;DHT22;3623;47.098;15.446;2022-12-04T11:13:00;4.00;99.90
7163;DHT22;3623;47.098;15.446;2022-12-04T11:15:28;4.10;99.90
7163;DHT22;3623;47.098;15.446;2022-12-04T11:18:06;4.10;99.90
7163;DHT22;3623;47.098;15.446;2022-12-04T11:20:33;4.10;99.90
7163;DHT22;3623;47.098;15.446;2022-12-04T11:23:00;4.10;99.90
7163;DHT22;3623;47.098;15.446;2022-12-04T11:25:32;4.20;99.90
7163;DHT22;3623;47.098;15.446;2022-12-04T11:28:02;4.10;99.90
7163;DHT22;3623;47.098;15.446;2022-12-04T11:30:32;4.10;99.90
7163;DHT22;3623;47.098;15.446;2022-12-04T11:33:00;4.10;99.90
7163;DHT22;3623;47.098;15.446;2022-12-04T11:35:29;4.30;99.90
7163;DHT22;3623;47.098;15.446;2022-12-04T11:38:00;4.00;99.90
7163;DHT22;3623;47.098;15.446;2022-12-04T11:40:29;4.00;99.90
7163;DHT22;3623;47.098;15.446;2022-12-04T11:43:01;4.00;99.90
7163;DHT22;3623;47.098;15.446;2022-12-04T11:45:29;4.00;99.90
7163;DHT22;3623;47.098;15.446;2022-12-04T11:47:57;4.10;99.90
7163;DHT22;3623;47.098;15.446;2022-12-04T11:50:35;4.00;99.90
7163;DHT22;3623;47.098;15.446;2022-12-04T11:53:12;4.00;99.90
7163;DHT22;3623;47.098;15.446;2022-12-04T11:55:51;4.00;99.90
7163;DHT22;3623;47.098;15.446;2022-12-04T11:58:37;4.30;99.90
7163;DHT22;3623;47.098;15.446;2022-12-04T12:01:19;4.30;99.90
7163;DHT22;3623;47.098;15.446;2022-12-04T12:03:59;4.10;99.90
7163;DHT22;3623;47.098;15.446;2022-12-04T12:06:34;4.20;99.90
7163;DHT22;3623;47.098;15.446;2022-12-04T12:09:17;4.20;99.90
7163;DHT22;3623;47.098;15.446;2022-12-04T12:11:50;4.10;99.90
7163;DHT22;3623;47.098;15.446;2022-12-04T12:14:29;4.00;99.90
7163;DHT22;3623;47.098;15.446;2022-12-04T12:17:07;4.00;99.90
7163;DHT22;3623;47.098;15.446;2022-12-04T12:20:00;4.00;99.90
7163;DHT22;3623;47.098;15.446;2022-12-04T12:22:44;3.90;99.90
7163;DHT22;3623;47.098;15.446;2022-12-04T12:25:21;3.90;99.90
7163;DHT22;3623;47.098;15.446;2022-12-04T12:28:00;3.90;99.90
7163;DHT22;3623;47.098;15.446;2022-12-04T12:30:39;4.10;99.90
7163;DHT22;3623;47.098;15.446;2022-12-04T12:33:15;4.00;99.90
7163;DHT22;3623;47.098;15.446;2022-12-04T12:35:49;4.00;99.90
7163;DHT22;3623;47.098;15.446;2022-12-04T12:38:21;4.00;99.90
7163;DHT22;3623;47.098;15.446;2022-12-04T12:40:53;4.00;99.90
7163;DHT22;3623;47.098;15.446;2022-12-04T12:43:26;3.90;99.90
7163;DHT22;3623;47.098;15.446;2022-12-04T12:46:01;3.90;99.90
7163;DHT22;3623;47.098;15.446;2022-12-04T12:48:34;3.90;99.90
7163;DHT22;3623;47.098;15.446;2022-12-04T12:51:07;4.00;99.90
7163;DHT22;3623;47.098;15.446;2022-12-04T12:53:40;4.00;99.90
7163;DHT22;3623;47.098;15.446;2022-12-04T12:56:10;4.00;99.90
7163;DHT22;3623;47.098;15.446;2022-12-04T12:58:42;4.00;99.90
7163;DHT22;3623;47.098;15.446;2022-12-04T13:01:14;4.00;99.90
7163;DHT22;3623;47.098;15.446;2022-12-04T13:03:49;4.00;99.90
7163;DHT22;3623;47.098;15.446;2022-12-04T13:06:25;4.00;99.90
7163;DHT22;3623;47.098;15.446;2022-12-04T13:09:02;4.00;99.90
7163;DHT22;3623;47.098;15.446;2022-12-04T13:11:31;4.00;99.90
7163;DHT22;3623;47.098;15.446;2022-12-04T13:14:00;3.90;99.90
7163;DHT22;3623;47.098;15.446;2022-12-04T13:16:32;3.90;99.90
7163;DHT22;3623;47.098;15.446;2022-12-04T13:19:07;4.10;99.90
7163;DHT22;3623;47.098;15.446;2022-12-04T13:21:40;3.90;99.90
7163;DHT22;3623;47.098;15.446;2022-12-04T13:27:16;4.00;99.90
7163;DHT22;3623;47.098;15.446;2022-12-04T13:29:59;4.10;99.90
7163;DHT22;3623;47.098;15.446;2022-12-04T13:32:43;4.20;99.90
7163;DHT22;3623;47.098;15.446;2022-12-04T13:35:21;4.00;99.90
7163;DHT22;3623;47.098;15.446;2022-12-04T13:38:03;4.00;99.90
7163;DHT22;3623;47.098;15.446;2022-12-04T13:40:37;4.00;99.90
7163;DHT22;3623;47.098;15.446;2022-12-04T13:45:59;4.00;99.90
7163;DHT22;3623;47.098;15.446;2022-12-04T13:48:32;4.00;99.90
7163;DHT22;3623;47.098;15.446;2022-12-04T13:51:31;4.00;99.90
7163;DHT22;3623;47.098;15.446;2022-12-04T13:54:22;4.00;99.90
7163;DHT22;3623;47.098;15.446;2022-12-04T13:56:52;4.00;99.90
7163;DHT22;3623;47.098;15.446;2022-12-04T14:02:19;4.00;99.90
7163;DHT22;3623;47.098;15.446;2022-12-04T14:04:55;4.00;99.90
7163;DHT22;3623;47.098;15.446;2022-12-04T14:07:25;4.10;99.90
7163;DHT22;3623;47.098;15.446;2022-12-04T14:09:55;4.00;99.90
7163;DHT22;3623;47.098;15.446;2022-12-04T14:12:25;4.10;99.90
7163;DHT22;3623;47.098;15.446;2022-12-04T14:14:55;4.00;99.90
7163;DHT22;3623;47.098;15.446;2022-12-04T14:17:26;4.00;99.90
7163;DHT22;3623;47.098;15.446;2022-12-04T14:19:56;3.90;99.90
7163;DHT22;3623;47.098;15.446;2022-12-04T14:22:27;4.20;99.90
7163;DHT22;3623;47.098;15.446;2022-12-04T14:25:05;4.00;99.90
7163;DHT22;3623;47.098;15.446;2022-12-04T14:27:42;4.00;99.90
7163;DHT22;3623;47.098;15.446;2022-12-04T14:30:17;4.00;99.90
7163;DHT22;3623;47.098;15.446;2022-12-04T14:32:46;4.00;99.90
7163;DHT22;3623;47.098;15.446;2022-12-04T14:35:19;4.00;99.90
7163;DHT22;3623;47.098;15.446;2022-12-04T14:37:51;3.90;99.90
7163;DHT22;3623;47.098;15.446;2022-12-04T14:40:22;4.00;99.90
7163;DHT22;3623;47.098;15.446;2022-12-04T14:42:51;3.90;99.90
7163;DHT22;3623;47.098;15.446;2022-12-04T14:45:28;4.20;99.90
7163;DHT22;3623;47.098;15.446;2022-12-04T14:48:14;4.00;99.90
7163;DHT22;3623;47.098;15.446;2022-12-04T14:50:52;3.90;99.90
7163;DHT22;3623;47.098;15.446;2022-12-04T14:53:30;3.90;99.90
7163;DHT22;3623;47.098;15.446;2022-12-04T14:56:05;3.90;99.90
7163;DHT22;3623;47.098;15.446;2022-12-04T14:58:38;4.00;99.90
7163;DHT22;3623;47.098;15.446;2022-12-04T15:01:16;4.10;99.90
7163;DHT22;3623;47.098;15.446;2022-12-04T15:03:46;3.90;99.90
7163;DHT22;3623;47.098;15.446;2022-12-04T15:06:19;3.90;99.90
7163;DHT22;3623;47.098;15.446;2022-12-04T15:08:48;3.80;99.90
7163;DHT22;3623;47.098;15.446;2022-12-04T15:11:17;3.80;99.90
7163;DHT22;3623;47.098;15.446;2022-12-04T15:14:10;3.80;99.90
7163;DHT22;3623;47.098;15.446;2022-12-04T15:16:39;3.80;99.90
7163;DHT22;3623;47.098;15.446;2022-12-04T15:19:15;3.90;99.90
7163;DHT22;3623;47.098;15.446;2022-12-04T15:21:44;3.80;99.90
7163;DHT22;3623;47.098;15.446;2022-12-04T15:24:16;3.80;99.90
7163;DHT22;3623;47.098;15.446;2022-12-04T15:26:45;3.80;99.90
7163;DHT22;3623;47.098;15.446;2022-12-04T15:29:16;4.00;99.90
7163;DHT22;3623;47.098;15.446;2022-12-04T15:31:47;3.70;99.90
7163;DHT22;3623;47.098;15.446;2022-12-04T15:34:23;3.80;99.90
7163;DHT22;3623;47.098;15.446;2022-12-04T15:36:58;3.70;99.90
7163;DHT22;3623;47.098;15.446;2022-12-04T15:39:28;3.70;99.90
7163;DHT22;3623;47.098;15.446;2022-12-04T15:42:04;3.70;99.90
7163;DHT22;3623;47.098;15.446;2022-12-04T15:44:33;3.70;99.90
7163;DHT22;3623;47.098;15.446;2022-12-04T15:47:02;3.70;99.90
7163;DHT22;3623;47.098;15.446;2022-12-04T15:49:40;3.70;99.90
7163;DHT22;3623;47.098;15.446;2022-12-04T15:52:15;3.70;99.90
7163;DHT22;3623;47.098;15.446;2022-12-04T15:54:51;3.70;99.90
7163;DHT22;3623;47.098;15.446;2022-12-04T15:57:22;3.70;99.90
7163;DHT22;3623;47.098;15.446;2022-12-04T15:59:51;3.70;99.90
7163;DHT22;3623;47.098;15.446;2022-12-04T16:02:30;3.60;99.90
7163;DHT22;3623;47.098;15.446;2022-12-04T16:05:10;3.70;99.90
7163;DHT22;3623;47.098;15.446;2022-12-04T16:07:47;3.60;99.90
7163;DHT22;3623;47.098;15.446;2022-12-04T16:10:20;3.70;99.90
7163;DHT22;3623;47.098;15.446;2022-12-04T16:12:51;3.60;99.90
7163;DHT22;3623;47.098;15.446;2022-12-04T16:15:19;3.60;99.90
7163;DHT22;3623;47.098;15.446;2022-12-04T16:17:47;3.50;99.90
7163;DHT22;3623;47.098;15.446;2022-12-04T16:20:14;3.50;99.90
7163;DHT22;3623;47.098;15.446;2022-12-04T16:22:43;3.50;99.90
7163;DHT22;3623;47.098;15.446;2022-12-04T16:25:12;3.80;99.90
7163;DHT22;3623;47.098;15.446;2022-12-04T16:27:39;3.50;99.90
7163;DHT22;3623;47.098;15.446;2022-12-04T16:30:07;3.60;99.90
7163;DHT22;3623;47.098;15.446;2022-12-04T16:32:34;3.50;99.90
7163;DHT22;3623;47.098;15.446;2022-12-04T16:35:01;3.50;99.90
7163;DHT22;3623;47.098;15.446;2022-12-04T16:37:28;3.80;99.90
7163;DHT22;3623;47.098;15.446;2022-12-04T16:39:58;3.80;99.90